Dundee, Michigan
Current Conditions -  °F | °C
As of 6:53 AM on Saturday 25 Oct 2014 (Local Time) from KTTF Reporting Station
Haze Haze  
Wind Chill: 52°   Ceiling: 6500
Heat Index: 52°   Visibility: 4mi
Dew Point: 50°   Wind: 3mph
Humidity: 94%   Direction: 220°SW
Pressure: 29.85"   Gusts: NA
Location:  41.96°N, 83.66°W
Report Text: KTTF 251053Z AUTO 22003KT 4SM BR OVC065 11/10 A2985 RMK AO2
Loading
Personal Weather Stations






























Interactive Weather Map
Tropical Storm Tracking
New forecast layout! Learn more

10-Day Weather Forecast

Advertisements
Track Severe Weather on mobile